Time;durP1;ratioP1;P1;durP2;ratioP2;P2;SDS_P1;SDS_P2;PMS_P1;PMS_P2;Temp;Humidity;BMP_temperature;BMP_pressure;BME280_temperature;BME280_humidity;BME280_pressure;Samples;Min_cycle;Max_cycle;Signal;HPM_P1;HPM_P2
2022/01/20 00:03:31;;;;;;;15.55;11.10;;;;;;;15.48;38.13;93503.47;4978917;28;20045;-82
2022/01/20 00:27:51;;;;;;;16.40;10.32;;;;;;;15.48;37.83;93484.41;4936497;28;20049;-82
2022/01/20 00:30:38;;;;;;;13.27;9.52;;;;;;;15.52;37.72;93477.47;4950087;28;20490;-83
2022/01/20 00:33:18;;;;;;;12.60;9.75;;;;;;;15.52;37.94;93466.59;4936528;28;20514;-82
2022/01/20 00:38:15;;;;;;;13.73;9.43;;;;;;;15.44;37.78;93490.81;4949724;28;20042;-85
2022/01/20 00:40:41;;;;;;;15.55;10.43;;;;;;;15.49;37.61;93489.34;4918373;29;20046;-82
2022/01/20 00:43:06;;;;;;;13.32;10.02;;;;;;;15.52;37.88;93490.34;4949529;28;20051;-82
2022/01/20 00:45:32;;;;;;;13.50;9.90;;;;;;;15.52;37.84;93493.09;4950752;28;20462;-83
2022/01/20 00:47:57;;;;;;;13.55;9.60;;;;;;;15.50;37.74;93492.81;4932905;29;20050;-83
2022/01/20 00:50:24;;;;;;;11.23;9.00;;;;;;;15.59;37.62;93492.66;4934029;28;20062;-82
2022/01/20 00:52:49;;;;;;;13.05;9.00;;;;;;;15.53;37.73;93502.75;4949694;28;20095;-82
2022/01/20 00:55:15;;;;;;;15.07;9.57;;;;;;;15.52;38.04;93503.97;4933592;28;20031;-85
2022/01/20 00:57:40;;;;;;;9.80;7.72;;;;;;;15.60;37.50;93505.75;4934003;29;20059;-83
2022/01/20 01:00:07;;;;;;;11.90;8.77;;;;;;;15.55;37.73;93514.66;4933393;28;20039;-82
2022/01/20 01:02:35;;;;;;;11.95;9.27;;;;;;;15.53;37.23;93508.94;4950035;28;20450;-82
2022/01/20 01:05:00;;;;;;;13.90;9.45;;;;;;;15.57;38.00;93508.75;4934204;28;20098;-82
2022/01/20 01:09:54;;;;;;;11.15;9.70;;;;;;;15.49;37.71;93516.59;4949788;28;20051;-82
2022/01/20 01:12:30;;;;;;;10.65;8.48;;;;;;;15.47;37.81;93532.69;4933287;28;20406;-83
2022/01/20 01:14:55;;;;;;;11.38;8.52;;;;;;;15.47;37.92;93526.50;4949295;28;20058;-82
2022/01/20 01:20:10;;;;;;;9.88;8.55;;;;;;;15.54;37.90;93529.50;4949813;28;20280;-82
2022/01/20 01:22:35;;;;;;;10.82;8.40;;;;;;;15.56;37.88;93532.53;4949894;28;20046;-83
2022/01/20 01:25:02;;;;;;;11.30;8.65;;;;;;;15.47;37.88;93535.41;4933047;29;20043;-83
2022/01/20 01:27:32;;;;;;;11.20;8.00;;;;;;;15.53;38.03;93532.72;4948811;28;20032;-83
2022/01/20 01:30:19;;;;;;;13.50;8.60;;;;;;;15.50;37.97;93534.44;4934163;28;20526;-82
2022/01/20 01:32:49;;;;;;;11.98;8.73;;;;;;;15.49;38.35;93532.94;4935826;28;20035;-82
2022/01/20 01:35:15;;;;;;;10.20;8.25;;;;;;;15.46;37.96;93528.47;4948594;28;20044;-81
2022/01/20 01:40:08;;;;;;;11.02;8.45;;;;;;;15.53;37.61;93516.38;4948637;28;20031;-82
2022/01/20 01:42:41;;;;;;;8.90;8.00;;;;;;;15.47;37.73;93521.78;4933601;29;20031;-82
2022/01/20 01:45:19;;;;;;;9.88;8.35;;;;;;;15.42;38.01;93515.06;4918811;28;20078;-82
2022/01/20 01:47:45;;;;;;;10.52;7.60;;;;;;;15.46;38.03;93517.56;4949125;28;20035;-83
2022/01/20 01:50:10;;;;;;;13.65;8.25;;;;;;;15.47;38.08;93510.88;4917076;28;20119;-82
2022/01/20 01:52:36;;;;;;;10.27;7.82;;;;;;;15.48;37.99;93509.66;4917199;29;20035;-82
2022/01/20 01:55:01;;;;;;;9.77;7.78;;;;;;;15.44;37.91;93507.16;4916421;29;20040;-83
2022/01/20 01:57:27;;;;;;;10.27;8.32;;;;;;;15.48;37.88;93506.94;4932633;28;20038;-84
2022/01/20 01:59:52;;;;;;;9.45;7.35;;;;;;;15.47;37.86;93499.25;4932893;28;20452;-86
2022/01/20 02:02:18;;;;;;;10.63;8.00;;;;;;;15.48;38.11;93496.03;4948333;28;20039;-82
2022/01/20 02:04:43;;;;;;;11.52;7.80;;;;;;;15.51;37.87;93489.63;4948758;28;20047;-83
2022/01/20 02:18:12;;;;;;;11.70;7.45;;;;;;;15.43;38.03;93486.59;4935260;28;20054;-82
2022/01/20 02:20:37;;;;;;;8.63;7.00;;;;;;;15.54;37.80;93490.63;4921271;28;20423;-82
2022/01/20 02:23:03;;;;;;;10.30;7.10;;;;;;;15.53;37.64;93483.69;4916481;28;20522;-83
2022/01/20 02:25:30;;;;;;;10.93;6.88;;;;;;;15.57;37.77;93486.94;4948700;28;20035;-82
2022/01/20 02:27:57;;;;;;;8.52;6.85;;;;;;;15.56;37.45;93478.03;4932762;28;20545;-82
2022/01/20 02:30:24;;;;;;;9.48;7.13;;;;;;;15.52;37.75;93466.59;4932267;28;20031;-82
2022/01/20 02:32:53;;;;;;;10.48;7.40;;;;;;;15.46;37.79;93473.97;4932070;29;20040;-82
2022/01/20 02:35:18;;;;;;;8.93;6.47;;;;;;;15.51;38.02;93472.53;4948014;28;20047;-82
2022/01/20 02:37:46;;;;;;;9.77;6.75;;;;;;;15.50;37.86;93460.88;4934779;29;20070;-82
2022/01/20 02:44:50;;;;;;;;;;;;;;;;;;;;;
2022/01/20 02:45:41;;;;;;;8.40;6.63;;;;;;;15.49;37.99;93473.00;4938785;28;20132;-82
2022/01/20 02:48:06;;;;;;;9.75;7.38;;;;;;;15.47;38.34;93463.84;4935989;28;20052;-83
2022/01/20 02:50:32;;;;;;;8.20;6.47;;;;;;;15.49;37.98;93466.81;4936388;28;20031;-83
2022/01/20 02:52:57;;;;;;;8.48;6.53;;;;;;;15.48;37.83;93463.34;4936385;29;20046;-84
2022/01/20 02:55:23;;;;;;;9.55;7.05;;;;;;;15.49;37.85;93473.00;4935829;28;20043;-82
2022/01/20 02:57:48;;;;;;;7.45;5.90;;;;;;;15.49;37.75;93464.84;4936342;29;20050;-82
2022/01/20 03:00:14;;;;;;;9.50;6.82;;;;;;;15.48;37.95;93460.63;4935417;28;20509;-83
2022/01/20 03:02:41;;;;;;;9.10;6.45;;;;;;;15.49;37.91;93470.28;4949621;28;20054;-87
2022/01/20 03:05:07;;;;;;;7.75;5.95;;;;;;;15.50;37.85;93471.78;4935703;28;20067;-82
2022/01/20 03:07:32;;;;;;;7.97;6.10;;;;;;;15.49;37.76;93456.66;4951707;28;20126;-83
2022/01/20 03:09:58;;;;;;;7.65;6.22;;;;;;;15.49;38.06;93461.38;4935835;28;20089;-84
2022/01/20 03:12:23;;;;;;;11.68;6.50;;;;;;;15.48;37.63;93455.19;4919832;28;20402;-83
2022/01/20 03:14:49;;;;;;;10.23;7.30;;;;;;;15.46;38.02;93459.63;4936123;28;20486;-82
2022/01/20 03:17:15;;;;;;;9.32;6.30;;;;;;;15.46;37.76;93454.91;4951155;28;20046;-82
2022/01/20 03:19:41;;;;;;;7.43;5.88;;;;;;;15.46;37.70;93441.28;4935652;29;20051;-83
2022/01/20 03:22:07;;;;;;;8.15;5.50;;;;;;;15.52;38.19;93447.50;4950973;28;20043;-83
2022/01/20 03:24:32;;;;;;;7.90;5.60;;;;;;;15.59;37.87;93446.34;4951594;28;20040;-83
2022/01/20 03:26:57;;;;;;;8.57;6.35;;;;;;;15.52;37.65;93439.34;4935143;29;20501;-83
2022/01/20 03:29:23;;;;;;;7.22;5.32;;;;;;;15.50;37.89;93422.00;4919441;28;20042;-83
2022/01/20 03:31:48;;;;;;;7.03;5.30;;;;;;;15.49;38.07;93432.16;4951541;28;20462;-82
2022/01/20 03:34:14;;;;;;;7.63;5.70;;;;;;;15.51;37.87;93421.50;4950733;28;20406;-82
2022/01/20 03:36:39;;;;;;;8.43;6.32;;;;;;;15.44;37.91;93430.16;4935612;28;20114;-82
2022/01/20 03:39:04;;;;;;;8.82;5.90;;;;;;;15.46;37.96;93432.38;4935135;28;20035;-83
2022/01/20 03:41:30;;;;;;;7.72;6.38;;;;;;;15.45;37.77;93423.47;4935143;28;20491;-82
2022/01/20 03:43:55;;;;;;;7.07;5.10;;;;;;;15.46;38.10;93427.69;4951617;28;20050;-82
2022/01/20 03:46:22;;;;;;;7.38;5.45;;;;;;;15.42;37.91;93416.25;4950364;28;21473;-83
2022/01/20 03:48:56;;;;;;;7.93;5.60;;;;;;;15.49;37.98;93431.41;4934187;28;20035;-83
2022/01/20 03:51:24;;;;;;;6.53;5.10;;;;;;;15.47;38.12;93431.88;4920616;28;21935;-83
2022/01/20 03:53:50;;;;;;;7.35;5.63;;;;;;;15.46;37.74;93422.22;4919320;28;20446;-83
2022/01/20 03:56:16;;;;;;;9.57;5.72;;;;;;;15.48;38.01;93427.94;4934550;28;20075;-84
2022/01/20 03:58:41;;;;;;;6.97;5.40;;;;;;;15.47;38.43;93421.00;4934566;28;20051;-83
2022/01/20 04:01:07;;;;;;;7.35;5.70;;;;;;;15.50;37.55;93417.28;4934287;28;20388;-83
2022/01/20 04:03:32;;;;;;;6.93;5.25;;;;;;;15.48;37.75;93424.47;4935534;28;20435;-88
2022/01/20 04:05:58;;;;;;;5.80;5.05;;;;;;;15.44;37.83;93430.16;4934796;28;20047;-83
2022/01/20 04:08:25;;;;;;;7.60;5.50;;;;;;;15.43;37.89;93415.78;4934286;28;20050;-83
2022/01/20 04:10:50;;;;;;;7.18;5.50;;;;;;;15.49;38.11;93418.53;4934684;28;20122;-82
2022/01/20 04:13:17;;;;;;;9.80;5.68;;;;;;;15.47;37.89;93409.34;4934894;28;20031;-89
2022/01/20 04:15:43;;;;;;;6.55;5.00;;;;;;;15.43;38.02;93421.22;4934706;28;20073;-82
2022/01/20 04:18:11;;;;;;;5.60;4.60;;;;;;;15.44;37.91;93413.78;4950555;28;20035;-82
2022/01/20 04:20:36;;;;;;;5.72;4.70;;;;;;;15.47;38.20;93403.91;4950653;28;20072;-83
2022/01/20 04:23:02;;;;;;;7.95;5.43;;;;;;;15.45;37.76;93401.66;4918321;28;20326;-83
2022/01/20 04:25:27;;;;;;;7.15;5.07;;;;;;;15.47;37.89;93395.72;4950376;28;20047;-83
2022/01/20 04:27:53;;;;;;;6.65;5.00;;;;;;;15.53;37.79;93391.03;4934891;28;20050;-89
2022/01/20 04:30:18;;;;;;;5.13;4.60;;;;;;;15.50;37.75;93386.56;4933490;28;20040;-82
2022/01/20 04:32:43;;;;;;;4.60;4.00;;;;;;;15.54;37.73;93392.53;4918864;29;20051;-87
2022/01/20 04:35:09;;;;;;;6.43;4.88;;;;;;;15.50;37.88;93392.03;4933103;28;20036;-82
2022/01/20 04:37:35;;;;;;;7.22;5.38;;;;;;;15.51;38.13;93390.78;4934124;29;20059;-83
2022/01/20 04:40:02;;;;;;;6.50;4.70;;;;;;;15.43;38.01;93404.88;4918850;29;20035;-82
2022/01/20 04:42:29;;;;;;;6.13;4.90;;;;;;;15.41;38.10;93396.44;4918395;28;20035;-82
2022/01/20 04:45:06;;;;;;;5.95;4.93;;;;;;;15.44;37.90;93394.72;4934351;29;20035;-82
2022/01/20 04:58:09;;;;;;;6.07;4.90;;;;;;;15.48;37.83;93391.78;4950782;28;20046;-82
2022/01/20 05:00:34;;;;;;;5.95;4.80;;;;;;;15.45;38.13;93385.31;4917749;28;20055;-83
2022/01/20 05:03:02;;;;;;;5.53;4.47;;;;;;;15.46;38.01;93378.63;4949610;28;20611;-82
2022/01/20 05:05:27;;;;;;;5.57;4.40;;;;;;;15.44;38.02;93383.84;4933889;28;20046;-83
2022/01/20 05:07:52;;;;;;;6.18;4.97;;;;;;;15.44;37.91;93373.69;4949830;28;20047;-86
2022/01/20 05:10:18;;;;;;;5.70;4.75;;;;;;;15.46;37.90;93375.16;4917644;28;20047;-83
2022/01/20 05:15:19;;;;;;;5.13;4.60;;;;;;;15.42;38.09;93369.97;4943227;28;20585;-89
2022/01/20 05:17:44;;;;;;;7.22;5.13;;;;;;;15.42;38.22;93372.69;4934368;28;20518;-86
2022/01/20 05:20:11;;;;;;;7.60;5.45;;;;;;;15.41;38.13;93379.38;4911201;28;20126;-82
2022/01/20 05:22:36;;;;;;;6.78;5.45;;;;;;;15.40;37.91;93367.72;4942895;28;20505;-82
2022/01/20 05:25:03;;;;;;;6.75;5.45;;;;;;;15.44;37.94;93372.94;4909621;28;20044;-81
2022/01/20 05:27:29;;;;;;;7.88;5.88;;;;;;;15.47;37.95;93371.22;4924199;28;20498;-86
2022/01/20 05:29:55;;;;;;;8.70;7.10;;;;;;;15.40;38.19;93373.19;4933703;28;20051;-83
2022/01/20 05:32:21;;;;;;;11.85;7.53;;;;;;;15.40;38.11;93377.88;4935159;28;20410;-83
2022/01/20 05:34:46;;;;;;;25.33;12.70;;;;;;;15.52;37.99;93371.22;4961140;28;20035;-85
2022/01/20 05:37:12;;;;;;;13.80;8.02;;;;;;;15.54;38.25;93365.28;4968283;28;20509;-85
2022/01/20 05:39:37;;;;;;;9.88;6.53;;;;;;;15.41;37.96;93360.31;4931196;28;20039;-87
2022/01/20 05:42:03;;;;;;;22.58;9.98;;;;;;;15.58;38.08;93366.56;4903728;28;20043;-85
2022/01/20 05:44:28;;;;;;;10.73;7.32;;;;;;;15.58;38.22;93358.41;4947738;28;20034;-88
2022/01/20 05:46:54;;;;;;;14.25;8.85;;;;;;;15.54;38.23;93360.59;4940003;28;20051;-86
2022/01/20 05:49:23;;;;;;;14.80;8.70;;;;;;;15.56;38.06;93365.56;4930249;28;20027;-87
2022/01/20 05:51:50;;;;;;;26.85;10.23;;;;;;;15.63;38.14;93357.63;4937344;28;20051;-86
2022/01/20 05:54:15;;;;;;;24.58;10.45;;;;;;;15.61;38.19;93365.56;4932330;28;20039;-89
2022/01/20 05:56:41;;;;;;;25.27;11.38;;;;;;;15.57;37.82;93365.09;4934195;28;20493;-85
2022/01/20 05:59:06;;;;;;;24.30;12.23;;;;;;;15.47;37.74;93349.41;4968834;28;20161;-84
2022/01/20 06:01:36;;;;;;;35.25;14.57;;;;;;;15.53;37.50;93342.00;4924046;28;20050;-85
2022/01/20 06:04:01;;;;;;;39.65;14.50;;;;;;;15.46;37.54;93347.94;4948472;28;20122;-87
2022/01/20 06:06:27;;;;;;;56.55;17.55;;;;;;;15.45;37.35;93339.00;4934478;28;20045;-87
2022/01/20 06:08:52;;;;;;;51.67;20.77;;;;;;;15.56;37.57;93333.63;4963880;28;20031;-86
2022/01/20 06:11:18;;;;;;;102.03;25.48;;;;;;;15.52;37.79;93335.06;4941156;28;20082;-86
2022/01/20 06:13:43;;;;;;;85.55;25.75;;;;;;;15.52;37.50;93332.34;4946213;28;20117;-86
2022/01/20 06:16:09;;;;;;;56.70;22.10;;;;;;;15.43;37.71;93342.22;4939511;28;20046;-87
2022/01/20 06:18:35;;;;;;;60.83;23.92;;;;;;;15.40;37.86;93334.28;4936182;28;20046;-87
2022/01/20 06:21:00;;;;;;;71.38;26.90;;;;;;;15.55;38.13;93331.38;4935412;28;20117;-89
2022/01/20 06:23:26;;;;;;;96.85;42.33;;;;;;;15.50;38.01;93321.19;4928183;28;20074;-87
2022/01/20 06:25:51;;;;;;;117.35;48.72;;;;;;;15.51;37.84;93325.41;4938385;28;20049;-85
2022/01/20 06:28:17;;;;;;;137.13;53.05;;;;;;;15.53;38.00;93326.41;4946941;28;20053;-88
2022/01/20 06:30:42;;;;;;;135.48;54.05;;;;;;;15.60;38.07;93333.34;4928501;28;20035;-88
2022/01/20 06:33:08;;;;;;;130.63;54.80;;;;;;;15.48;38.39;93318.97;4935977;28;20486;-88
2022/01/20 06:35:33;;;;;;;143.88;56.83;;;;;;;15.48;38.33;93318.22;4934869;28;20039;-88
2022/01/20 06:37:59;;;;;;;116.30;48.95;;;;;;;15.60;37.93;93306.84;4949986;28;20039;-88
2022/01/20 06:40:24;;;;;;;125.05;50.65;;;;;;;15.58;37.81;93298.47;4934654;28;20043;-90
2022/01/20 06:42:50;;;;;;;116.78;49.88;;;;;;;15.58;37.90;93300.44;4935722;28;20105;-88
2022/01/20 06:45:16;;;;;;;126.57;51.67;;;;;;;15.60;37.95;93295.22;4940427;28;20138;-90
2022/01/20 06:47:42;;;;;;;124.18;48.75;;;;;;;15.52;37.73;93286.78;4921599;28;20043;-85
2022/01/20 06:50:08;;;;;;;85.00;38.97;;;;;;;15.43;36.97;93293.19;4949980;28;20415;-86
2022/01/20 06:52:34;;;;;;;88.13;36.58;;;;;;;15.37;36.91;93297.88;4936526;28;20062;-88
2022/01/20 06:55:00;;;;;;;82.82;37.58;;;;;;;15.40;36.75;93296.91;4935669;28;20114;-87
2022/01/20 06:57:26;;;;;;;111.38;46.67;;;;;;;15.41;36.93;93300.38;4951151;28;20070;-88
2022/01/20 06:59:51;;;;;;;100.45;41.22;;;;;;;15.36;37.17;93298.41;4957025;28;20045;-88
2022/01/20 07:02:17;;;;;;;111.28;42.63;;;;;;;15.41;37.19;93311.28;4940182;28;20652;-88
2022/01/20 07:04:44;;;;;;;110.90;45.40;;;;;;;15.41;37.86;93303.84;4938962;28;20051;-90
2022/01/20 07:07:09;;;;;;;95.45;41.28;;;;;;;15.48;37.50;93301.88;4922719;28;20095;-87
2022/01/20 07:09:35;;;;;;;98.97;44.13;;;;;;;15.58;37.90;93297.72;4951331;28;20162;-87
2022/01/20 07:12:01;;;;;;;83.95;40.38;;;;;;;15.63;37.85;93307.84;4933096;28;20071;-86
2022/01/20 07:14:26;;;;;;;323.58;225.93;;;;;;;15.70;38.76;93316.28;4950079;28;20039;-86
2022/01/20 07:16:52;;;;;;;696.00;516.03;;;;;;;15.79;38.75;93325.47;4946666;28;20039;-85
2022/01/20 07:19:18;;;;;;;92.30;42.45;;;;;;;15.65;37.70;93325.19;4955404;28;20053;-89
2022/01/20 07:21:43;;;;;;;84.90;39.15;;;;;;;15.71;38.11;93317.03;4918570;28;20435;-88
2022/01/20 07:24:09;;;;;;;80.32;38.00;;;;;;;15.66;37.81;93325.94;4940175;28;20057;-86
2022/01/20 07:26:34;;;;;;;78.85;38.40;;;;;;;15.62;37.52;93326.19;4946329;28;20066;-86
2022/01/20 07:29:00;;;;;;;74.45;35.45;;;;;;;15.60;37.86;93320.47;4938095;28;20051;-86
2022/01/20 07:31:25;;;;;;;46.50;24.08;;;;;;;15.52;37.03;93319.47;4943707;28;20444;-86
2022/01/20 07:33:51;;;;;;;52.65;27.48;;;;;;;15.46;37.12;93316.00;4948198;28;20503;-89
2022/01/20 07:36:16;;;;;;;175.85;40.63;;;;;;;15.41;37.48;93314.75;4937894;28;20042;-88
2022/01/20 07:38:42;;;;;;;199.15;42.10;;;;;;;15.50;37.63;93330.13;4921087;28;20035;-88
2022/01/20 07:41:07;;;;;;;90.65;34.13;;;;;;;15.53;37.89;93331.84;4957132;28;20047;-89
2022/01/20 07:43:33;;;;;;;96.15;35.33;;;;;;;15.45;37.84;93328.13;4939638;28;20402;-89
2022/01/20 07:45:58;;;;;;;80.00;34.88;;;;;;;15.50;37.88;93337.53;4939576;28;20268;-87
2022/01/20 07:48:24;;;;;;;67.20;32.17;;;;;;;15.53;37.78;93325.66;4955276;28;20054;-89
2022/01/20 07:50:49;;;;;;;105.25;34.58;;;;;;;15.56;37.88;93338.34;4954758;28;20772;-88
2022/01/20 07:53:15;;;;;;;112.18;37.25;;;;;;;15.55;38.00;93336.81;4955259;28;20133;-88
2022/01/20 07:55:40;;;;;;;85.13;33.55;;;;;;;15.66;37.58;93328.66;4921152;29;20422;-88
2022/01/20 07:58:06;;;;;;;109.03;33.42;;;;;;;15.52;37.63;93335.06;4965048;28;20034;-88
2022/01/20 08:00:31;;;;;;;105.75;37.50;;;;;;;15.47;37.75;93335.81;4924445;28;20410;-89
2022/01/20 08:02:57;;;;;;;82.65;31.35;;;;;;;15.57;37.68;93340.56;4941445;28;20043;-87
2022/01/20 08:05:22;;;;;;;92.25;33.15;;;;;;;15.50;37.99;93332.09;4941458;28;20050;-90
2022/01/20 08:07:48;;;;;;;84.82;38.58;;;;;;;15.53;38.07;93331.09;4943852;28;20046;-90
2022/01/20 08:10:14;;;;;;;99.07;42.60;;;;;;;15.54;37.86;93352.41;4947205;28;20043;-87
2022/01/20 08:12:43;;;;;;;100.10;44.30;;;;;;;15.56;37.79;93349.97;4941807;28;20103;-89
2022/01/20 08:15:12;;;;;;;127.80;58.20;;;;;;;15.54;37.75;93340.78;4956773;28;20057;-90
2022/01/20 08:17:39;;;;;;;154.70;70.88;;;;;;;15.53;37.98;93340.03;4941473;28;20042;-87
2022/01/20 08:20:06;;;;;;;155.82;76.38;;;;;;;15.60;38.03;93342.28;4910390;29;20120;-89
2022/01/20 08:22:34;;;;;;;272.95;92.45;;;;;;;15.56;37.88;93330.16;4885199;29;20119;-90
2022/01/20 08:25:02;;;;;;;129.77;56.55;;;;;;;15.56;37.22;93347.25;4901647;29;20052;-85
2022/01/20 08:27:29;;;;;;;153.40;55.90;;;;;;;15.40;37.38;93351.38;4886200;29;20058;-87
2022/01/20 08:29:54;;;;;;;192.02;68.97;;;;;;;15.42;37.57;93351.63;4885411;29;20048;-88
2022/01/20 08:32:20;;;;;;;164.88;65.95;;;;;;;15.51;37.73;93341.75;4884865;29;20147;-88
2022/01/20 08:34:45;;;;;;;151.55;65.43;;;;;;;15.48;37.87;93340.00;4905382;29;20698;-87
2022/01/20 08:37:11;;;;;;;149.73;73.47;;;;;;;15.48;38.50;93345.47;4931850;29;20055;-85
2022/01/20 08:42:03;;;;;;;145.90;65.47;;;;;;;15.54;38.93;93343.50;4925298;29;20044;-85
2022/01/20 08:44:28;;;;;;;151.68;72.57;;;;;;;15.50;38.74;93348.44;4914422;29;20092;-85
2022/01/20 08:46:57;;;;;;;151.23;70.72;;;;;;;15.57;39.09;93367.81;4903889;29;20418;-87
2022/01/20 08:49:22;;;;;;;135.80;63.50;;;;;;;15.51;39.28;93367.00;4890971;29;20050;-86
2022/01/20 08:51:50;;;;;;;150.90;71.63;;;;;;;15.48;39.66;93367.25;4950518;28;20038;-87
2022/01/20 08:54:16;;;;;;;165.63;70.18;;;;;;;15.50;39.48;93365.53;4920795;28;20390;-86
2022/01/20 08:56:42;;;;;;;151.52;71.93;;;;;;;15.51;39.46;93349.94;4947452;28;20049;-86
2022/01/20 08:59:09;;;;;;;151.93;64.95;;;;;;;15.60;39.60;93355.91;4943520;28;20034;-85
2022/01/20 09:01:35;;;;;;;120.40;48.53;;;;;;;15.51;39.22;93353.41;4931615;28;20149;-86
2022/01/20 09:04:00;;;;;;;113.68;49.35;;;;;;;15.42;39.15;93351.63;4933116;28;20031;-86
2022/01/20 09:06:26;;;;;;;96.72;43.35;;;;;;;15.42;39.35;93346.19;4948862;28;20038;-85
2022/01/20 09:08:51;;;;;;;115.38;55.97;;;;;;;15.46;39.64;93331.59;4918079;28;20066;-84
2022/01/20 09:11:22;;;;;;;121.82;57.88;;;;;;;15.47;40.08;93347.44;4932305;28;20129;-86
2022/01/20 09:16:32;;;;;;;232.35;59.85;;;;;;;15.59;39.79;93329.16;4954552;28;19929;-86
2022/01/20 09:18:58;;;;;;;239.00;71.60;;;;;;;15.46;40.22;93313.25;4930237;28;20050;-86
2022/01/20 09:21:24;;;;;;;135.38;50.53;;;;;;;15.48;40.29;93335.31;4955331;28;20043;-91
2022/01/20 09:23:49;;;;;;;90.80;41.65;;;;;;;15.38;39.88;93334.78;4938131;28;20155;-86
2022/01/20 09:26:17;;;;;;;160.05;50.45;;;;;;;15.38;40.39;93340.22;4921468;28;20046;-89
2022/01/20 09:28:43;;;;;;;127.40;53.80;;;;;;;15.47;39.84;93338.53;4941793;28;20073;-88
2022/01/20 09:31:09;;;;;;;121.28;50.22;;;;;;;15.51;40.28;93341.75;4934114;28;20043;-87
2022/01/20 09:33:34;;;;;;;148.38;54.63;;;;;;;15.40;39.95;93340.50;4919344;28;20126;-88
2022/01/20 09:36:00;;;;;;;112.80;42.65;;;;;;;15.37;38.54;93354.38;4936855;28;20122;-88
2022/01/20 09:38:26;;;;;;;116.20;39.75;;;;;;;15.32;37.91;93350.41;4938944;28;20105;-89
2022/01/20 09:40:51;;;;;;;99.70;40.28;;;;;;;15.30;37.91;93349.41;4937552;28;20684;-88
2022/01/20 09:43:17;;;;;;;114.80;41.72;;;;;;;15.38;38.10;93369.44;4936052;28;20134;-88
2022/01/20 09:45:46;;;;;;;144.57;46.05;;;;;;;15.31;38.68;93370.69;4953149;28;20031;-89
2022/01/20 09:48:11;;;;;;;162.63;53.75;;;;;;;15.34;38.79;93371.69;4945834;28;20039;-87
2022/01/20 09:50:37;;;;;;;131.32;51.88;;;;;;;15.37;39.15;93362.53;4949552;28;20070;-88
2022/01/20 09:53:02;;;;;;;157.40;56.10;;;;;;;15.41;39.51;93373.91;4920958;28;20042;-87
2022/01/20 09:55:28;;;;;;;134.10;55.30;;;;;;;15.47;39.87;93365.75;4937388;28;20046;-87
2022/01/20 09:57:54;;;;;;;131.68;53.60;;;;;;;15.44;39.98;93379.13;4931286;28;20040;-86
2022/01/20 10:00:20;;;;;;;218.50;68.97;;;;;;;15.48;39.90;93370.72;4931538;28;20035;-86
2022/01/20 10:03:00;;;;;;;114.45;49.63;;;;;;;15.50;39.84;93370.22;4970577;28;20054;-85
2022/01/20 10:05:29;;;;;;;118.85;52.55;;;;;;;15.50;39.99;93362.81;4934936;28;20046;-86
2022/01/20 10:08:00;;;;;;;124.88;53.45;;;;;;;15.49;39.84;93355.88;4924059;28;20497;-86
2022/01/20 10:10:34;;;;;;;;;;;;;;;15.50;39.83;93362.81;4943520;28;20517;-87
2022/01/20 10:13:04;;;;;;;136.77;54.92;;;;;;;15.53;39.88;93374.69;4940533;28;20024;-87
2022/01/20 10:15:30;;;;;;;127.80;55.28;;;;;;;15.49;39.89;93363.28;4929092;28;20042;-86
2022/01/20 10:18:12;;;;;;;140.07;55.97;;;;;;;15.55;39.81;93353.91;4935809;28;20505;-86
2022/01/20 10:20:53;;;;;;;138.13;57.28;;;;;;;15.53;40.24;93347.47;4932586;28;20125;-86
2022/01/20 10:23:28;;;;;;;119.20;55.30;;;;;;;15.52;39.72;93367.75;4922156;28;20039;-85
2022/01/20 10:26:04;;;;;;;139.50;64.47;;;;;;;15.60;40.05;93364.06;4952064;28;20074;-85
2022/01/20 10:28:29;;;;;;;153.40;70.43;;;;;;;15.60;39.81;93355.16;4937588;28;20074;-85
2022/01/20 10:30:55;;;;;;;161.32;71.15;;;;;;;15.53;39.72;93361.06;4952474;28;20509;-85
2022/01/20 10:33:21;;;;;;;167.45;77.25;;;;;;;15.51;40.46;93363.56;4936762;28;20067;-84
2022/01/20 10:35:46;;;;;;;161.00;75.10;;;;;;;15.50;39.88;93360.09;4923714;28;20043;-86
2022/01/20 10:38:14;;;;;;;117.60;53.20;;;;;;;15.47;38.66;93352.16;4951332;28;20406;-89
2022/01/20 10:40:59;;;;;;;138.52;55.45;;;;;;;15.39;38.68;93351.88;4940436;28;20054;-84
2022/01/20 10:43:28;;;;;;;127.65;59.65;;;;;;;15.44;38.59;93341.00;4938212;28;20042;-88
2022/01/20 10:46:01;;;;;;;138.57;65.38;;;;;;;15.48;38.92;93357.09;4936569;28;20097;-87
2022/01/20 10:48:26;;;;;;;159.73;70.85;;;;;;;15.48;39.47;93340.00;4939281;28;20042;-88
2022/01/20 10:50:52;;;;;;;156.30;72.00;;;;;;;15.52;39.95;93357.59;4941589;28;20129;-87
2022/01/20 10:53:21;;;;;;;243.18;105.50;;;;;;;15.52;39.94;93351.41;4953547;28;20039;-85
2022/01/20 10:55:47;;;;;;;270.42;131.95;;;;;;;15.59;39.65;93356.41;4937584;28;20039;-87
2022/01/20 10:58:12;;;;;;;180.02;86.13;;;;;;;15.60;40.27;93358.63;4937174;28;20043;-85
2022/01/20 11:00:46;;;;;;;227.93;95.38;;;;;;;15.54;40.16;93346.97;4964786;28;20053;-88
2022/01/20 11:03:12;;;;;;;216.50;97.00;;;;;;;15.60;40.13;93352.44;4940301;28;20039;-84
2022/01/20 11:05:38;;;;;;;196.10;95.35;;;;;;;15.70;40.17;93348.25;4919789;29;20050;-84
2022/01/20 11:08:05;;;;;;;163.65;74.22;;;;;;;15.63;39.02;93349.47;4950408;28;20050;-86
2022/01/20 11:10:30;;;;;;;109.82;50.53;;;;;;;15.44;37.84;93338.28;4970700;28;20035;-86
2022/01/20 11:12:56;;;;;;;112.10;52.05;;;;;;;15.54;37.99;93314.28;4954443;28;20047;-84
2022/01/20 11:15:23;;;;;;;138.18;61.75;;;;;;;15.64;38.55;93326.44;4961836;28;20051;-88
2022/01/20 11:17:52;;;;;;;145.10;66.35;;;;;;;15.67;38.31;93332.88;4943727;28;20034;-86
2022/01/20 11:20:21;;;;;;;185.98;81.20;;;;;;;15.67;38.96;93336.34;4932519;28;20035;-84
2022/01/20 11:22:53;;;;;;;161.85;76.95;;;;;;;15.65;38.90;93332.63;4938095;28;20034;-86
2022/01/20 11:25:21;;;;;;;175.48;91.18;;;;;;;15.72;39.33;93327.44;4948798;28;20043;-81
2022/01/20 11:27:46;;;;;;;224.07;118.63;;;;;;;15.71;39.43;93317.03;4913105;28;20046;-82
2022/01/20 11:30:15;;;;;;;157.50;74.78;;;;;;;15.72;39.18;93321.25;4932881;28;20280;-84
2022/01/20 11:32:41;;;;;;;143.75;70.88;;;;;;;15.75;39.54;93309.34;4935171;28;20035;-82
2022/01/20 11:35:08;;;;;;;147.90;72.68;;;;;;;15.70;39.33;93313.56;4952957;28;20116;-80
2022/01/20 11:37:36;;;;;;;141.85;73.57;;;;;;;15.76;40.03;93308.84;4952840;28;20038;-83
2022/01/20 11:40:18;;;;;;;153.55;77.55;;;;;;;15.79;39.92;93296.22;4945504;28;20081;-84
2022/01/20 11:42:57;;;;;;;145.55;71.07;;;;;;;15.83;39.85;93293.22;4964267;28;20046;-84
2022/01/20 11:45:32;;;;;;;136.23;72.55;;;;;;;15.87;39.86;93280.84;4971128;28;20050;-84
2022/01/20 11:47:58;;;;;;;133.52;71.20;;;;;;;15.78;39.54;93283.84;4970969;28;20635;-83
2022/01/20 11:50:24;;;;;;;120.55;59.38;;;;;;;15.68;39.52;93277.13;4935248;28;20054;-84
2022/01/20 11:52:49;;;;;;;113.88;61.13;;;;;;;15.60;40.00;93257.06;4949894;28;20407;-84
2022/01/20 11:55:18;;;;;;;120.45;56.60;;;;;;;15.71;39.65;93262.53;4922835;28;20066;-85
2022/01/20 11:57:44;;;;;;;126.88;61.35;;;;;;;15.61;39.74;93250.38;4922412;28;20046;-85
2022/01/20 12:00:25;;;;;;;116.90;56.00;;;;;;;15.59;39.45;93259.03;4934000;28;20043;-83
2022/01/20 12:02:50;;;;;;;109.78;56.50;;;;;;;15.60;39.78;93271.44;4935526;28;20039;-84
2022/01/20 12:05:20;;;;;;;101.60;54.47;;;;;;;15.66;39.81;93261.28;4937950;28;20567;-84
2022/01/20 12:07:45;;;;;;;109.90;57.97;;;;;;;15.62;39.95;93260.78;4938426;28;20046;-84
2022/01/20 12:10:12;;;;;;;103.88;56.70;;;;;;;15.62;39.90;93265.50;4936493;28;20042;-85
2022/01/20 12:12:40;;;;;;;130.80;59.17;;;;;;;15.59;40.18;93256.31;4922499;28;20537;-84
2022/01/20 12:15:09;;;;;;;129.85;61.33;;;;;;;15.66;39.66;93255.09;4938957;28;20043;-84
2022/01/20 12:17:34;;;;;;;118.78;55.85;;;;;;;15.63;39.90;93237.00;4922950;28;20518;-85
2022/01/20 12:19:59;;;;;;;118.13;56.55;;;;;;;15.60;40.01;93224.38;4938698;28;20039;-84
2022/01/20 12:22:25;;;;;;;153.18;68.97;;;;;;;15.59;39.92;93231.81;4950945;28;20268;-84
2022/01/20 12:24:52;;;;;;;158.52;68.07;;;;;;;15.65;39.71;93231.81;4930341;28;20730;-84